Terminal Aerodrome Forecast
Issued by NWS

Home | Current Version | Previous Version | Text Only | Print | Product List | Glossary On
Versions: 1 2 3 4 5 6 7 8 9 10 11 12 13 14 15 16 17 18 19 20 21 22 23 24 25 26 27 28 29 30 31 32 33 34 35 36
888
FTAK31 PANC 231131 RRA
TAFADQ
TAF
PADQ 231131Z 2312/2412 06011KT 3SM -RA BR BKN008 OVC015
      TEMPO 2312/2316 09011KT 1/2SM -RA FG SCT004 BKN005 OVC015
     FM231600 07010KT 3SM -RA BR SCT005 OVC015
     FM240600 09007KT 2SM -RA BR SCT003 OVC007=

USA.gov is the U.S. government's official web portal to all federal, state and local government web resources and services.